createdAt,value
2022-10-24T00:01:37.029Z,100030.00
2022-10-24T00:06:38.225Z,100046.00
2022-10-24T00:09:06.028Z,100039.00
2022-10-24T00:11:34.343Z,100045.00
2022-10-24T00:14:03.665Z,100047.00
2022-10-24T00:16:32.992Z,100048.00
2022-10-24T00:19:00.780Z,100044.00
2022-10-24T00:21:28.586Z,100055.00
2022-10-24T00:23:56.356Z,100043.00
2022-10-24T00:26:24.161Z,100039.00
2022-10-24T00:28:52.230Z,100041.00
2022-10-24T00:31:21.018Z,100048.00
2022-10-24T00:33:50.376Z,100046.00
2022-10-24T00:36:20.268Z,100052.00
2022-10-24T00:38:48.723Z,100057.00
2022-10-24T00:41:17.666Z,100053.00
2022-10-24T00:43:45.720Z,100045.00
2022-10-24T00:46:14.489Z,100048.00
2022-10-24T00:48:45.874Z,100039.00
2022-10-24T00:51:21.624Z,100044.00
2022-10-24T00:53:51.904Z,100046.00
2022-10-24T00:56:22.564Z,100035.00
2022-10-24T00:58:51.401Z,100016.00
2022-10-24T01:01:19.281Z,100023.00
2022-10-24T01:03:47.157Z,100022.00
2022-10-24T01:06:38.725Z,100013.00
2022-10-24T01:09:17.628Z,100005.00
2022-10-24T01:12:01.365Z,100003.00
2022-10-24T01:14:39.297Z,100015.00
2022-10-24T01:17:16.338Z,100017.00
2022-10-24T01:20:22.782Z,100034.00
2022-10-24T01:23:08.323Z,100031.00
2022-10-24T01:25:44.971Z,100024.00
2022-10-24T01:28:15.731Z,100022.00
2022-10-24T01:30:48.602Z,100032.00
2022-10-24T01:33:23.364Z,100022.00
2022-10-24T01:35:55.898Z,100010.00
2022-10-24T01:38:31.351Z,100002.00
2022-10-24T01:41:01.594Z,100000.00
2022-10-24T01:43:32.610Z,99995.00
2022-10-24T01:46:03.925Z,100003.00
2022-10-24T01:48:36.240Z,100007.00
2022-10-24T01:51:05.155Z,99999.00
2022-10-24T01:53:33.164Z,100000.00
2022-10-24T01:56:01.881Z,99991.00
2022-10-24T01:58:29.751Z,99996.00
2022-10-24T02:01:02.641Z,99981.00
2022-10-24T02:03:35.665Z,99980.00
2022-10-24T02:06:10.015Z,99978.00
2022-10-24T02:08:42.341Z,99986.00
2022-10-24T02:11:11.228Z,99987.00
2022-10-24T02:13:45.130Z,99978.00
2022-10-24T02:16:16.522Z,99985.00
2022-10-24T02:18:46.401Z,99984.00
2022-10-24T02:21:21.991Z,99973.00
2022-10-24T02:23:54.479Z,99973.00
2022-10-24T02:26:29.697Z,99972.00
2022-10-24T02:29:01.172Z,99973.00
2022-10-24T02:31:33.944Z,99961.00
2022-10-24T02:34:07.069Z,99947.00
2022-10-24T02:36:36.996Z,99934.00
2022-10-24T02:39:08.605Z,99934.00
2022-10-24T02:41:39.155Z,99945.00
2022-10-24T02:44:08.074Z,99942.00
2022-10-24T02:46:36.573Z,99949.00
2022-10-24T02:49:06.887Z,99954.00
2022-10-24T02:51:38.155Z,99953.00
2022-10-24T02:54:06.641Z,99952.00
2022-10-24T02:56:36.180Z,99946.00
2022-10-24T02:59:04.312Z,99953.00
2022-10-24T03:01:32.168Z,99952.00
2022-10-24T03:03:59.976Z,99945.00
2022-10-24T03:06:29.315Z,99946.00
2022-10-24T03:08:57.086Z,99935.00
2022-10-24T04:25:47.424Z,99933.00
2022-10-24T04:28:16.694Z,99951.00
2022-10-24T04:30:44.750Z,99944.00
2022-10-24T04:33:12.600Z,99935.00
2022-10-24T04:35:40.408Z,99935.00
2022-10-24T04:38:08.160Z,99933.00
2022-10-24T04:40:35.918Z,99926.00
2022-10-24T04:43:03.730Z,99925.00
2022-10-24T04:45:32.873Z,99924.00
2022-10-24T04:48:00.607Z,99932.00
2022-10-24T04:50:28.515Z,99929.00
2022-10-24T04:52:56.287Z,99922.00
2022-10-24T04:55:24.093Z,99923.00
2022-10-24T04:57:51.992Z,99917.00
2022-10-24T05:00:20.009Z,99926.00
2022-10-24T05:02:50.673Z,99936.00
2022-10-24T05:05:19.921Z,99918.00
2022-10-24T05:07:48.297Z,99946.00
2022-10-24T05:10:17.397Z,99935.00
2022-10-24T05:12:45.487Z,99934.00
2022-10-24T05:15:14.997Z,99924.00
2022-10-24T05:17:43.122Z,99919.00
2022-10-24T05:20:12.878Z,99922.00
2022-10-24T05:22:41.394Z,99928.00
2022-10-24T05:25:09.757Z,99918.00
2022-10-24T05:27:37.571Z,99911.00
2022-10-24T05:30:06.319Z,99922.00
2022-10-24T05:32:37.266Z,99904.00
2022-10-24T05:35:08.564Z,99912.00
2022-10-24T05:37:38.842Z,99908.00
2022-10-24T05:40:08.387Z,99903.00
2022-10-24T05:42:36.577Z,99915.00
2022-10-24T05:45:04.708Z,99910.00
2022-10-24T05:47:32.508Z,99904.00
2022-10-24T05:50:00.329Z,99902.00
2022-10-24T05:52:28.111Z,99907.00
2022-10-24T05:55:06.718Z,99913.00
2022-10-24T05:57:35.370Z,99913.00
2022-10-24T06:00:03.266Z,99920.00
2022-10-24T06:02:31.181Z,99913.00
2022-10-24T06:04:59.116Z,99918.00
2022-10-24T06:07:26.923Z,99919.00
2022-10-24T06:09:54.915Z,99923.00
2022-10-24T06:12:24.124Z,99927.00
2022-10-24T06:14:51.942Z,99927.00
2022-10-24T06:17:19.722Z,99932.00
2022-10-24T06:22:24.480Z,99930.00
2022-10-24T06:24:52.331Z,99926.00
2022-10-24T06:27:20.495Z,99911.00
2022-10-24T06:29:49.677Z,99923.00
2022-10-24T06:32:17.451Z,99916.00
2022-10-24T06:34:45.426Z,99928.00
2022-10-24T06:37:13.296Z,99919.00
2022-10-24T06:39:41.043Z,99920.00
2022-10-24T06:42:08.840Z,99916.00
2022-10-24T06:44:36.722Z,99913.00
2022-10-24T06:47:05.979Z,99917.00
2022-10-24T06:49:33.812Z,99925.00
2022-10-24T06:52:03.709Z,99932.00
2022-10-24T06:54:32.047Z,99938.00
2022-10-24T06:56:59.833Z,99935.00
2022-10-24T06:59:28.280Z,99927.00
2022-10-24T07:01:57.629Z,99942.00
2022-10-24T07:04:29.490Z,99947.00
2022-10-24T07:06:57.284Z,99945.00
2022-10-24T07:09:25.129Z,99950.00
2022-10-24T07:11:52.917Z,99954.00
2022-10-24T07:14:20.711Z,99958.00
2022-10-24T07:16:48.491Z,99957.00
2022-10-24T07:19:16.245Z,99946.00
2022-10-24T07:21:45.411Z,99960.00
2022-10-24T07:24:14.059Z,99959.00
2022-10-24T07:26:41.932Z,99949.00
2022-10-24T07:29:10.214Z,99947.00
2022-10-24T07:31:38.006Z,99964.00
2022-10-24T07:34:07.632Z,99962.00
2022-10-24T07:36:38.934Z,99960.00
2022-10-24T07:39:13.109Z,99959.00
2022-10-24T07:41:42.990Z,99961.00
2022-10-24T07:44:12.073Z,99947.00
2022-10-24T07:46:41.655Z,99961.00
2022-10-24T07:49:10.079Z,99957.00
2022-10-24T07:51:37.976Z,99970.00
2022-10-24T07:54:05.926Z,99958.00
2022-10-24T07:56:35.132Z,99969.00
2022-10-24T07:59:09.020Z,99962.00
2022-10-24T08:01:37.701Z,99972.00
2022-10-24T08:04:05.759Z,99958.00
2022-10-24T08:06:34.157Z,99948.00
2022-10-24T08:09:02.053Z,99954.00
2022-10-24T08:11:31.354Z,99959.00
2022-10-24T08:14:02.336Z,99956.00
2022-10-24T08:16:30.252Z,99945.00
2022-10-24T08:18:59.542Z,99945.00
2022-10-24T08:21:27.601Z,99955.00
2022-10-24T08:23:56.669Z,99950.00
2022-10-24T08:26:26.416Z,99936.00
2022-10-24T08:28:55.304Z,99947.00
2022-10-24T08:31:26.442Z,99944.00
2022-10-24T08:33:55.723Z,99959.00
2022-10-24T08:36:26.139Z,99959.00
2022-10-24T08:38:54.514Z,99952.00
2022-10-24T08:41:28.842Z,99951.00
2022-10-24T08:43:58.981Z,99948.00
2022-10-24T08:46:40.316Z,99939.00
2022-10-24T08:49:16.847Z,99945.00
2022-10-24T08:51:48.586Z,99942.00
2022-10-24T08:54:19.582Z,99936.00
2022-10-24T08:56:48.520Z,99931.00
2022-10-24T08:59:16.326Z,99947.00
2022-10-24T09:01:49.774Z,99951.00
2022-10-24T09:04:22.287Z,99938.00
2022-10-24T09:06:52.868Z,99934.00
2022-10-24T09:09:25.143Z,99943.00
2022-10-24T09:11:56.501Z,99927.00
2022-10-24T09:14:27.560Z,99936.00
2022-10-24T09:16:59.867Z,99944.00
2022-10-24T09:19:30.548Z,99939.00
2022-10-24T09:22:00.576Z,99947.00
2022-10-24T09:24:34.954Z,99934.00
2022-10-24T09:27:06.355Z,99933.00
2022-10-24T09:29:35.035Z,99932.00
2022-10-24T09:32:05.100Z,99937.00
2022-10-24T09:34:32.916Z,99926.00
2022-10-24T09:37:00.620Z,99941.00
2022-10-24T09:39:31.139Z,99934.00
2022-10-24T09:42:00.686Z,99936.00
2022-10-24T09:44:38.224Z,99946.00
2022-10-24T09:47:22.681Z,99949.00
2022-10-24T09:49:50.501Z,99944.00
2022-10-24T09:52:21.272Z,99941.00
2022-10-24T09:55:07.018Z,99944.00
2022-10-24T09:57:40.755Z,99946.00
2022-10-24T10:00:23.775Z,99946.00
2022-10-24T10:03:05.274Z,99952.00
2022-10-24T10:05:48.161Z,99964.00
2022-10-24T10:08:22.566Z,99964.00
2022-10-24T10:11:08.071Z,99955.00
2022-10-24T10:13:45.383Z,99953.00
2022-10-24T10:16:23.510Z,99961.00
2022-10-24T10:19:02.517Z,99931.00
2022-10-24T10:21:54.359Z,99952.00
2022-10-24T10:24:27.002Z,99957.00
2022-10-24T10:26:54.968Z,99938.00
2022-10-24T10:29:24.311Z,99957.00
2022-10-24T10:31:59.263Z,99951.00
2022-10-24T10:34:36.515Z,99957.00
2022-10-24T10:37:24.871Z,99960.00
2022-10-24T10:40:08.359Z,99961.00
2022-10-24T10:42:39.082Z,99958.00
2022-10-24T10:45:17.015Z,99960.00
2022-10-24T10:47:59.178Z,99964.00
2022-10-24T10:50:36.343Z,99975.00
2022-10-24T10:53:17.786Z,99966.00
2022-10-24T10:55:53.459Z,99966.00
2022-10-24T10:58:31.426Z,99964.00
2022-10-24T11:01:10.406Z,99980.00
2022-10-24T11:03:46.548Z,99970.00
2022-10-24T11:06:33.223Z,99980.00
2022-10-24T11:09:22.504Z,99990.00
2022-10-24T11:11:54.998Z,100004.00
2022-10-24T11:14:29.942Z,100006.00
2022-10-24T11:17:02.186Z,100002.00
2022-10-24T11:19:40.457Z,100005.00
2022-10-24T11:22:18.461Z,100005.00
2022-10-24T11:24:53.303Z,99987.00
2022-10-24T11:27:26.516Z,99987.00
2022-10-24T11:29:58.046Z,99976.00
2022-10-24T11:32:33.610Z,99982.00
2022-10-24T11:35:06.163Z,99967.00
2022-10-24T11:37:39.085Z,99987.00
2022-10-24T11:40:12.591Z,99982.00
2022-10-24T11:42:47.593Z,99994.00
2022-10-24T11:45:17.674Z,99984.00
2022-10-24T11:48:11.684Z,99989.00
2022-10-24T11:50:44.891Z,99998.00
2022-10-24T11:53:23.593Z,99991.00
2022-10-24T11:55:56.214Z,100000.00
2022-10-24T11:58:27.118Z,99995.00
2022-10-24T12:01:19.410Z,99994.00
2022-10-24T12:04:14.134Z,100005.00
2022-10-24T12:07:07.547Z,99994.00
2022-10-24T12:09:51.265Z,99998.00
2022-10-24T12:12:36.078Z,100002.00
2022-10-24T12:15:20.092Z,100008.00
2022-10-24T12:18:01.910Z,100002.00
2022-10-24T12:20:31.219Z,99999.00
2022-10-24T12:23:00.978Z,99998.00
2022-10-24T12:25:33.538Z,100002.00
2022-10-24T12:28:03.608Z,100004.00
2022-10-24T12:30:33.515Z,99994.00
2022-10-24T12:33:11.200Z,99998.00
2022-10-24T12:35:57.587Z,100007.00
2022-10-24T12:39:08.950Z,100011.00
2022-10-24T12:41:42.678Z,100007.00
2022-10-24T12:44:44.549Z,100001.00
2022-10-24T12:47:35.170Z,100011.00
2022-10-24T12:50:40.195Z,100012.00
2022-10-24T12:53:20.396Z,100021.00
2022-10-24T12:56:11.949Z,100009.00
2022-10-24T12:58:43.705Z,100013.00
2022-10-24T13:01:24.388Z,100014.00
2022-10-24T13:04:36.521Z,100004.00
2022-10-24T13:07:30.986Z,100014.00
2022-10-24T13:10:11.056Z,100008.00
2022-10-24T13:12:53.181Z,100017.00
2022-10-24T13:15:31.082Z,100019.00
2022-10-24T13:18:08.447Z,100026.00
2022-10-24T13:20:39.374Z,100017.00
2022-10-24T13:23:16.322Z,100030.00
2022-10-24T13:25:45.210Z,100029.00
2022-10-24T13:28:45.926Z,100019.00
2022-10-24T13:31:44.258Z,100023.00
2022-10-24T13:34:29.914Z,100021.00
2022-10-24T13:37:14.072Z,100025.00
2022-10-24T13:39:47.787Z,100030.00
2022-10-24T13:42:28.353Z,100031.00
2022-10-24T13:45:00.969Z,100024.00
2022-10-24T13:47:34.543Z,100024.00
2022-10-24T13:50:07.003Z,100041.00
2022-10-24T13:52:49.092Z,100028.00
2022-10-24T13:55:24.918Z,100038.00
2022-10-24T13:57:56.797Z,100024.00
2022-10-24T14:00:27.164Z,100032.00
2022-10-24T14:02:59.624Z,100038.00
2022-10-24T14:05:34.758Z,100036.00
2022-10-24T14:08:03.597Z,100034.00
2022-10-24T14:10:32.161Z,100033.00
2022-10-24T14:13:01.296Z,100034.00
2022-10-24T14:15:31.912Z,100041.00
2022-10-24T14:18:03.580Z,100041.00
2022-10-24T14:20:33.656Z,100044.00
2022-10-24T14:23:02.058Z,100058.00
2022-10-24T14:25:33.272Z,100042.00
2022-10-24T14:28:03.398Z,100049.00
2022-10-24T14:30:34.973Z,100042.00
2022-10-24T14:33:24.484Z,100043.00
2022-10-24T14:35:56.793Z,100042.00
2022-10-24T14:38:27.736Z,100029.00
2022-10-24T14:41:08.391Z,100042.00
2022-10-24T14:43:39.839Z,100022.00
2022-10-24T14:46:25.596Z,100031.00
2022-10-24T14:48:55.678Z,100028.00
2022-10-24T14:51:37.694Z,100027.00
2022-10-24T14:54:17.861Z,100047.00
2022-10-24T14:56:46.441Z,100044.00
2022-10-24T14:59:22.641Z,100043.00
2022-10-24T15:01:56.121Z,100041.00
2022-10-24T15:04:37.355Z,100059.00
2022-10-24T15:07:16.326Z,100052.00
2022-10-24T15:09:54.592Z,100046.00
2022-10-24T15:12:29.251Z,100046.00
2022-10-24T15:15:01.283Z,100057.00
2022-10-24T15:17:32.839Z,100045.00
2022-10-24T15:20:03.949Z,100044.00
2022-10-24T15:22:34.774Z,100043.00
2022-10-24T15:25:05.368Z,100042.00
2022-10-24T15:27:40.270Z,100040.00
2022-10-24T15:30:14.219Z,100046.00
2022-10-24T15:32:42.000Z,100039.00
2022-10-24T15:35:11.490Z,100050.00
2022-10-24T15:37:39.310Z,100060.00
2022-10-24T15:40:14.571Z,100049.00
2022-10-24T15:42:42.548Z,100060.00
2022-10-24T15:45:15.443Z,100060.00
2022-10-24T15:47:44.750Z,100080.00
2022-10-24T15:50:16.605Z,100087.00
2022-10-24T15:52:48.682Z,100085.00
2022-10-24T15:55:19.413Z,100098.00
2022-10-24T15:57:47.745Z,100085.00
2022-10-24T16:00:17.241Z,100086.00
2022-10-24T16:02:48.365Z,100100.00
2022-10-24T16:05:21.594Z,100085.00
2022-10-24T16:07:52.412Z,100089.00
2022-10-24T16:10:22.404Z,100079.00
2022-10-24T16:12:51.488Z,100115.00
2022-10-24T16:15:22.381Z,100095.00
2022-10-24T16:17:50.528Z,100102.00
2022-10-24T16:20:20.053Z,100107.00
2022-10-24T16:22:48.338Z,100111.00
2022-10-24T16:25:18.982Z,100110.00
2022-10-24T16:27:48.578Z,100113.00
2022-10-24T16:30:18.106Z,100106.00
2022-10-24T16:32:47.046Z,100124.00
2022-10-24T16:35:21.508Z,100122.00
2022-10-24T16:37:49.438Z,100127.00
2022-10-24T16:40:17.430Z,100115.00
2022-10-24T16:42:45.783Z,100127.00
2022-10-24T16:45:13.871Z,100131.00
2022-10-24T16:47:41.645Z,100132.00
2022-10-24T16:50:13.850Z,100132.00
2022-10-24T16:52:43.877Z,100126.00
2022-10-24T16:55:13.124Z,100125.00
2022-10-24T16:57:40.949Z,100111.00
2022-10-24T17:00:14.254Z,100120.00
2022-10-24T17:02:43.159Z,100120.00
2022-10-24T17:05:11.035Z,100125.00
2022-10-24T17:07:38.813Z,100116.00
2022-10-24T17:10:08.973Z,100120.00
2022-10-24T17:12:36.893Z,100116.00
2022-10-24T17:15:05.386Z,100127.00
2022-10-24T17:17:33.899Z,100121.00
2022-10-24T17:20:01.936Z,100124.00
2022-10-24T17:22:30.397Z,100125.00
2022-10-24T17:24:58.747Z,100134.00
2022-10-24T17:27:28.151Z,100140.00
2022-10-24T17:29:56.129Z,100137.00
2022-10-24T17:32:24.063Z,100139.00
2022-10-24T17:34:53.575Z,100140.00
2022-10-24T17:37:26.895Z,100147.00
2022-10-24T17:40:00.460Z,100148.00
2022-10-24T17:42:30.166Z,100149.00
2022-10-24T17:44:58.332Z,100148.00
2022-10-24T17:47:26.325Z,100156.00
2022-10-24T17:49:54.224Z,100149.00
2022-10-24T17:52:24.110Z,100156.00
2022-10-24T17:54:52.383Z,100158.00
2022-10-24T17:57:20.221Z,100171.00
2022-10-24T17:59:49.393Z,100180.00
2022-10-24T18:02:17.263Z,100171.00
2022-10-24T18:04:45.474Z,100171.00
2022-10-24T18:07:13.475Z,100162.00
2022-10-24T18:09:41.425Z,100165.00
2022-10-24T18:12:10.369Z,100164.00
2022-10-24T18:14:38.333Z,100161.00
2022-10-24T18:17:07.608Z,100155.00
2022-10-24T18:19:35.405Z,100152.00
2022-10-24T18:22:03.164Z,100166.00
2022-10-24T18:24:30.961Z,100169.00
2022-10-24T18:26:58.745Z,100165.00
2022-10-24T18:29:26.741Z,100167.00
2022-10-24T18:31:54.589Z,100174.00
2022-10-24T18:34:24.571Z,100190.00
2022-10-24T18:36:52.432Z,100184.00
2022-10-24T18:39:20.257Z,100187.00
2022-10-24T18:41:50.483Z,100196.00
2022-10-24T18:44:27.661Z,100204.00
2022-10-24T18:46:57.935Z,100191.00
2022-10-24T18:49:28.421Z,100197.00
2022-10-24T18:52:06.662Z,100187.00
2022-10-24T18:54:37.076Z,100193.00
2022-10-24T18:57:17.348Z,100190.00
2022-10-24T18:59:45.464Z,100185.00
2022-10-24T19:02:26.183Z,100189.00
2022-10-24T19:05:06.139Z,100189.00
2022-10-24T19:07:34.183Z,100186.00
2022-10-24T19:10:02.123Z,100189.00
2022-10-24T19:12:30.441Z,100178.00
2022-10-24T19:14:58.619Z,100182.00
2022-10-24T19:17:26.468Z,100186.00
2022-10-24T19:19:57.598Z,100188.00
2022-10-24T19:22:26.494Z,100182.00
2022-10-24T19:24:54.275Z,100176.00
2022-10-24T19:27:22.103Z,100197.00
2022-10-24T19:29:49.902Z,100188.00
2022-10-24T19:32:17.847Z,100193.00
2022-10-24T19:34:45.973Z,100189.00
2022-10-24T19:37:15.817Z,100190.00
2022-10-24T19:39:43.668Z,100198.00
2022-10-24T19:42:11.632Z,100189.00
2022-10-24T19:44:39.500Z,100185.00
2022-10-24T19:47:07.379Z,100195.00
2022-10-24T19:49:35.224Z,100206.00
2022-10-24T19:52:03.237Z,100198.00
2022-10-24T19:54:32.357Z,100200.00
2022-10-24T19:57:00.194Z,100206.00
2022-10-24T19:59:33.608Z,100211.00
2022-10-24T20:02:01.638Z,100206.00
2022-10-24T20:04:30.215Z,100214.00
2022-10-24T20:06:58.071Z,100219.00
2022-10-24T20:09:25.862Z,100225.00
2022-10-24T20:11:57.834Z,100229.00
2022-10-24T20:14:25.808Z,100220.00
2022-10-24T20:16:53.988Z,100220.00
2022-10-24T20:19:21.972Z,100223.00
2022-10-24T20:21:49.760Z,100225.00
2022-10-24T20:24:17.554Z,100216.00
2022-10-24T20:26:45.664Z,100227.00
2022-10-24T20:29:15.608Z,100230.00
2022-10-24T20:31:45.480Z,100226.00
2022-10-24T20:34:14.714Z,100213.00
2022-10-24T20:36:47.112Z,100237.00
2022-10-24T20:39:20.748Z,100239.00
2022-10-24T20:41:51.761Z,100246.00
2022-10-24T20:44:23.362Z,100247.00
2022-10-24T20:46:53.168Z,100253.00
2022-10-24T20:49:21.023Z,100247.00
2022-10-24T20:51:48.938Z,100249.00
2022-10-24T20:54:16.739Z,100251.00
2022-10-24T20:56:44.667Z,100261.00
2022-10-24T20:59:13.969Z,100251.00
2022-10-24T21:01:43.429Z,100261.00
2022-10-24T21:04:12.192Z,100266.00
2022-10-24T21:06:41.297Z,100272.00
2022-10-24T21:09:09.062Z,100272.00
2022-10-24T21:11:38.475Z,100274.00
2022-10-24T21:14:08.537Z,100274.00
2022-10-24T21:16:36.650Z,100282.00
2022-10-24T21:19:05.899Z,100284.00
2022-10-24T21:21:33.715Z,100280.00
2022-10-24T21:24:06.525Z,100291.00
2022-10-24T21:26:34.757Z,100285.00
2022-10-24T21:29:31.841Z,100292.00
2022-10-24T21:31:50.469Z,100290.00
2022-10-24T21:34:20.072Z,100295.00
2022-10-24T21:36:48.430Z,100290.00
2022-10-24T21:39:17.724Z,100286.00
2022-10-24T21:41:45.923Z,100293.00
2022-10-24T21:44:14.578Z,100288.00
2022-10-24T21:46:42.834Z,100294.00
2022-10-24T21:49:11.269Z,100303.00
2022-10-24T21:51:41.362Z,100291.00
2022-10-24T21:54:16.941Z,100290.00
2022-10-24T21:56:44.778Z,100294.00
2022-10-24T21:59:15.008Z,100292.00
2022-10-24T22:01:43.960Z,100287.00
2022-10-24T22:04:13.132Z,100287.00
2022-10-24T22:06:43.095Z,100299.00
2022-10-24T22:09:14.702Z,100303.00
2022-10-24T22:11:42.894Z,100298.00
2022-10-24T22:14:13.744Z,100302.00
2022-10-24T22:16:42.307Z,100311.00
2022-10-24T22:19:12.338Z,100307.00
2022-10-24T22:21:43.109Z,100312.00
2022-10-24T22:24:12.978Z,100315.00
2022-10-24T22:26:41.686Z,100319.00
2022-10-24T22:29:10.413Z,100320.00
2022-10-24T22:31:38.889Z,100326.00
2022-10-24T22:34:06.908Z,100330.00
2022-10-24T22:36:46.497Z,100318.00
2022-10-24T22:39:16.906Z,100324.00
2022-10-24T22:41:45.882Z,100332.00
2022-10-24T22:44:15.855Z,100337.00
2022-10-24T22:47:03.619Z,100325.00
2022-10-24T22:49:43.055Z,100320.00
2022-10-24T22:52:12.747Z,100332.00
2022-10-24T22:54:41.302Z,100324.00
2022-10-24T22:57:09.784Z,100321.00
2022-10-24T22:59:38.474Z,100335.00
2022-10-24T23:02:14.010Z,100342.00
2022-10-24T23:04:48.030Z,100333.00
2022-10-24T23:07:26.531Z,100345.00
2022-10-24T23:09:55.833Z,100336.00
2022-10-24T23:12:24.500Z,100338.00
2022-10-24T23:14:53.277Z,100350.00
2022-10-24T23:17:24.671Z,100352.00
2022-10-24T23:19:53.356Z,100357.00
2022-10-24T23:22:27.567Z,100359.00
2022-10-24T23:24:57.452Z,100358.00
2022-10-24T23:27:33.898Z,100362.00
2022-10-24T23:30:02.976Z,100361.00
2022-10-24T23:32:32.854Z,100362.00
2022-10-24T23:35:01.567Z,100351.00
2022-10-24T23:37:37.171Z,100355.00
2022-10-24T23:40:19.459Z,100357.00
2022-10-24T23:43:14.786Z,100348.00
2022-10-24T23:45:50.036Z,100358.00
2022-10-24T23:48:25.313Z,100354.00
2022-10-24T23:50:57.798Z,100357.00
2022-10-24T23:53:34.463Z,100366.00
2022-10-24T23:56:02.775Z,100359.00
2022-10-24T23:58:30.580Z,100354.00
